Time;durP1;ratioP1;P1;durP2;ratioP2;P2;SDS_P1;SDS_P2;PMS_P1;PMS_P2;Temp;Humidity;BMP_temperature;BMP_pressure;BME280_temperature;BME280_humidity;BME280_pressure;Samples;Min_cycle;Max_cycle;Signal;HPM_P1;HPM_P2
2022/07/29 00:00:03;;;;;;;;;;;;;;;;;;351345;28;897;-64
2022/07/29 00:00:14;;;;;;;;;;;;;;;;;;351309;28;887;-64
2022/07/29 00:00:24;;;;;;;;;;;;;;;;;;351220;28;1088;-64
2022/07/29 00:00:34;;;;;;;;;;;;;;;;;;351309;28;931;-63
2022/07/29 00:00:45;;;;;;;;;;;;;;;;;;351269;28;817;-64
2022/07/29 00:00:55;;;;;;;;;;;;;;;;;;351354;28;975;-64
2022/07/29 00:01:05;;;;;;;;;;;;;;;;;;351071;28;1491;-64
2022/07/29 00:01:15;;;;;;;;;;;;;;;;;;351296;28;891;-64
2022/07/29 00:01:26;;;;;;;;;;;;;;;;;;351357;28;975;-64
2022/07/29 00:01:36;;;;;;;;;;;;;;;;;;351534;28;770;-64
2022/07/29 00:01:46;;;;;;;;;;;;;;;;;;351602;28;932;-65
2022/07/29 00:01:57;;;;;;;;;;;;;;;;;;351592;28;1007;-64
2022/07/29 00:02:07;;;;;;;;;;;;;;;;;;351598;28;761;-64
2022/07/29 00:02:17;;;;;;;;;;;;;;;;;;351548;28;991;-64
2022/07/29 00:02:27;;;;;;;;;;;;;;;;;;351478;28;983;-63
2022/07/29 00:02:37;;;;;;;;;;;;;;;;;;350621;28;1343;-64
2022/07/29 00:02:48;;;;;;;;;;;;;;;;;;351519;28;986;-64
2022/07/29 00:02:58;;;;;;;;;;;;;;;;;;351582;28;928;-64
2022/07/29 00:03:08;;;;;;;;;;;;;;;;;;351549;28;900;-64
2022/07/29 00:03:18;;;;;;;;;;;;;;;;;;351527;28;804;-64
2022/07/29 00:03:28;;;;;;;;;;;;;;;;;;351562;28;971;-64
2022/07/29 00:03:39;;;;;;;;;;;;;;;;;;351548;28;872;-64
2022/07/29 00:03:49;;;;;;;;;;;;;;;;;;351500;28;964;-64
2022/07/29 00:03:59;;;;;;;;;;;;;;;;;;351610;28;896;-64
2022/07/29 00:04:09;;;;;;;;;;;;;;;;;;351562;28;1003;-63
2022/07/29 00:04:19;;;;;;;;;;;;;;;;;;351561;28;951;-63
2022/07/29 00:04:30;;;;;;;;;;;;;;;;;;351529;28;861;-63
2022/07/29 00:04:40;;;;;;;;;;;;;;;;;;351377;28;1435;-63
2022/07/29 00:04:50;;;;;;;;;;;;;;;;;;351348;28;1463;-63
2022/07/29 00:05:00;;;;;;;;;;;;;;;;;;351431;28;1569;-64
2022/07/29 00:05:13;;;;;;;;;;;;;;;;;;351568;28;793;-64
2022/07/29 00:05:23;;;;;;;;;;;;;;;;;;351592;28;975;-64
2022/07/29 00:05:33;;;;;;;;;;;;;;;;;;351553;28;840;-64
2022/07/29 00:05:43;;;;;;;;;;;;;;;;;;351524;28;983;-64
2022/07/29 00:05:54;;;;;;;;;;;;;;;;;;351579;28;959;-64
2022/07/29 00:06:04;;;;;;;;;;;;;;;;;;351380;28;1340;-64
2022/07/29 00:06:14;;;;;;;;;;;;;;;;;;349955;28;1537;-63
2022/07/29 00:06:25;;;;;;;;;;;;;;;;;;351594;28;774;-64
2022/07/29 00:06:35;;;;;;;;;;;;;;;;;;351467;28;909;-63
2022/07/29 00:06:45;;;;;;;;;;;;;;;;;;351561;28;769;-64
2022/07/29 00:06:55;;;;;;;;;;;;;;;;;;351601;28;920;-64
2022/07/29 00:07:05;;;;;;;;;;;;;;;;;;351561;28;967;-64
2022/07/29 00:07:15;;;;;;;;;;;;;;;;;;351948;28;1404;-63
2022/07/29 00:07:26;;;;;;;;;;;;;;;;;;351884;28;1486;-64
2022/07/29 00:07:36;;;;;;;;;;;;;;;;;;351427;28;1547;-64
2022/07/29 00:07:46;;;;;;;;;;;;;;;;;;351573;28;885;-64
2022/07/29 00:07:56;;;;;;;;;;;;;;;;;;351555;28;912;-64
2022/07/29 00:08:07;;;;;;;;;;;;;;;;;;351537;28;944;-63
2022/07/29 00:08:17;;;;;;;;;;;;;;;;;;351486;28;917;-63
2022/07/29 00:08:28;;;;;;;;;;;;;;;;;;351586;28;781;-63
2022/07/29 00:08:38;;;;;;;;;;;;;;;;;;351540;28;945;-64
2022/07/29 00:08:48;;;;;;;;;;;;;;;;;;351503;28;991;-64
2022/07/29 00:08:58;;;;;;;;;;;;;;;;;;351568;28;833;-64
2022/07/29 00:09:08;;;;;;;;;;;;;;;;;;351500;28;983;-64
2022/07/29 00:09:18;;;;;;;;;;;;;;;;;;351568;28;885;-64
2022/07/29 00:09:29;;;;;;;;;;;;;;;;;;351621;28;940;-65
2022/07/29 00:09:39;;;;;;;;;;;;;;;;;;351506;28;936;-64
2022/07/29 00:09:50;;;;;;;;;;;;;;;;;;351574;28;797;-64
2022/07/29 00:10:00;;;;;;;;;;;;;;;;;;351507;28;894;-64
2022/07/29 00:10:10;;;;;;;;;;;;;;;;;;351572;28;996;-64
2022/07/29 00:10:20;;;;;;;;;;;;;;;;;;351613;27;801;-63
2022/07/29 00:10:31;;;;;;;;;;;;;;;;;;351534;28;877;-64
2022/07/29 00:10:41;;;;;;;;;;;;;;;;;;351569;28;933;-64
2022/07/29 00:10:51;;;;;;;;;;;;;;;;;;351525;28;865;-64
2022/07/29 00:11:02;;;;;;;;;;;;;;;;;;351494;28;928;-64
2022/07/29 00:11:12;;;;;;;;;;;;;;;;;;351566;28;829;-64
2022/07/29 00:11:22;;;;;;;;;;;;;;;;;;349890;28;1441;-64
2022/07/29 00:11:32;;;;;;;;;;;;;;;;;;350125;28;964;-64
2022/07/29 00:11:43;;;;;;;;;;;;;;;;;;350148;28;770;-63
2022/07/29 00:11:55;;;;;;;;;;;;;;;;;;350090;28;940;-64
2022/07/29 00:12:05;;;;;;;;;;;;;;;;;;350188;28;759;-64
2022/07/29 00:12:15;;;;;;;;;;;;;;;;;;350199;28;984;-64
2022/07/29 00:12:25;;;;;;;;;;;;;;;;;;350534;28;1483;-64
2022/07/29 00:12:36;;;;;;;;;;;;;;;;;;351706;28;999;-63
2022/07/29 00:12:46;;;;;;;;;;;;;;;;;;351538;28;920;-64
2022/07/29 00:12:56;;;;;;;;;;;;;;;;;;351495;28;785;-64
2022/07/29 00:13:07;;;;;;;;;;;;;;;;;;351512;28;932;-64
2022/07/29 00:13:17;;;;;;;;;;;;;;;;;;351537;28;920;-64
2022/07/29 00:13:27;;;;;;;;;;;;;;;;;;351521;28;1002;-65
2022/07/29 00:13:37;;;;;;;;;;;;;;;;;;351511;28;924;-63
2022/07/29 00:13:47;;;;;;;;;;;;;;;;;;351563;28;991;-64
2022/07/29 00:13:58;;;;;;;;;;;;;;;;;;351434;28;1894;-64
2022/07/29 00:14:08;;;;;;;;;;;;;;;;;;351523;28;1051;-64
2022/07/29 00:14:18;;;;;;;;;;;;;;;;;;351543;28;980;-64
2022/07/29 00:14:28;;;;;;;;;;;;;;;;;;351565;28;1094;-64
2022/07/29 00:14:38;;;;;;;;;;;;;;;;;;351579;28;1001;-65
2022/07/29 00:14:49;;;;;;;;;;;;;;;;;;351534;28;968;-64
2022/07/29 00:14:59;;;;;;;;;;;;;;;;;;351485;28;1050;-64
2022/07/29 00:15:09;;;;;;;;;;;;;;;;;;351555;28;916;-63
2022/07/29 00:15:20;;;;;;;;;;;;;;;;;;351542;28;924;-63
2022/07/29 00:15:30;;;;;;;;;;;;;;;;;;351588;28;1181;-64
2022/07/29 00:15:40;;;;;;;;;;;;;;;;;;351546;28;778;-63
2022/07/29 00:15:50;;;;;;;;;;;;;;;;;;351226;28;1518;-64
2022/07/29 00:16:00;;;;;;;;;;;;;;;;;;351559;28;967;-64
2022/07/29 00:16:11;;;;;;;;;;;;;;;;;;351523;28;933;-64
2022/07/29 00:16:21;;;;;;;;;;;;;;;;;;351526;28;896;-63
2022/07/29 00:16:31;;;;;;;;;;;;;;;;;;351572;28;782;-64
2022/07/29 00:16:41;;;;;;;;;;;;;;;;;;351500;28;975;-63
2022/07/29 00:16:51;;;;;;;;;;;;;;;;;;351673;28;979;-63
2022/07/29 00:17:02;;;;;;;;;;;;;;;;;;351540;28;770;-63
2022/07/29 00:17:12;;;;;;;;;;;;;;;;;;351472;28;1063;-64
2022/07/29 00:17:23;;;;;;;;;;;;;;;;;;351564;28;920;-64
2022/07/29 00:17:33;;;;;;;;;;;;;;;;;;351569;28;809;-64
2022/07/29 00:17:44;;;;;;;;;;;;;;;;;;351521;28;932;-64
2022/07/29 00:17:54;;;;;;;;;;;;;;;;;;351675;28;789;-64
2022/07/29 00:18:04;;;;;;;;;;;;;;;;;;351563;28;975;-63
2022/07/29 00:18:14;;;;;;;;;;;;;;;;;;351555;28;932;-63
2022/07/29 00:18:24;;;;;;;;;;;;;;;;;;351488;28;1026;-64
2022/07/29 00:18:35;;;;;;;;;;;;;;;;;;351599;28;833;-64
2022/07/29 00:18:45;;;;;;;;;;;;;;;;;;351563;28;921;-64
2022/07/29 00:18:55;;;;;;;;;;;;;;;;;;351549;28;961;-64
2022/07/29 00:19:05;;;;;;;;;;;;;;;;;;351495;28;968;-64
2022/07/29 00:19:16;;;;;;;;;;;;;;;;;;352387;27;1001;-63
2022/07/29 00:19:26;;;;;;;;;;;;;;;;;;351558;28;952;-63
2022/07/29 00:19:36;;;;;;;;;;;;;;;;;;351590;28;920;-64
2022/07/29 00:19:46;;;;;;;;;;;;;;;;;;351181;28;1495;-63
2022/07/29 00:19:56;;;;;;;;;;;;;;;;;;351474;28;1460;-63
2022/07/29 00:20:07;;;;;;;;;;;;;;;;;;351521;28;991;-64
2022/07/29 00:20:17;;;;;;;;;;;;;;;;;;351571;28;924;-63
2022/07/29 00:20:27;;;;;;;;;;;;;;;;;;351517;28;921;-64
2022/07/29 00:20:38;;;;;;;;;;;;;;;;;;351638;28;940;-64
2022/07/29 00:20:48;;;;;;;;;;;;;;;;;;351560;28;952;-64
2022/07/29 00:20:58;;;;;;;;;;;;;;;;;;351501;28;976;-64
2022/07/29 00:21:08;;;;;;;;;;;;;;;;;;351512;28;1087;-64
2022/07/29 00:21:18;;;;;;;;;;;;;;;;;;351521;28;782;-63
2022/07/29 00:21:29;;;;;;;;;;;;;;;;;;351416;28;1156;-64
2022/07/29 00:21:39;;;;;;;;;;;;;;;;;;351540;28;936;-63
2022/07/29 00:21:49;;;;;;;;;;;;;;;;;;351513;28;884;-63
2022/07/29 00:22:00;;;;;;;;;;;;;;;;;;351525;28;940;-64
2022/07/29 00:22:10;;;;;;;;;;;;;;;;;;351576;28;810;-64
2022/07/29 00:22:20;;;;;;;;;;;;;;;;;;351567;28;837;-63
2022/07/29 00:22:30;;;;;;;;;;;;;;;;;;351645;28;905;-65
2022/07/29 00:22:41;;;;;;;;;;;;;;;;;;351478;28;1087;-64
2022/07/29 00:22:51;;;;;;;;;;;;;;;;;;351456;28;1083;-64
2022/07/29 00:23:01;;;;;;;;;;;;;;;;;;351534;28;968;-64
2022/07/29 00:23:12;;;;;;;;;;;;;;;;;;351545;28;921;-64
2022/07/29 00:23:22;;;;;;;;;;;;;;;;;;351498;28;837;-64
2022/07/29 00:23:32;;;;;;;;;;;;;;;;;;351535;28;995;-64
2022/07/29 00:23:42;;;;;;;;;;;;;;;;;;351558;28;808;-63
2022/07/29 00:23:53;;;;;;;;;;;;;;;;;;351487;28;816;-64
2022/07/29 00:24:03;;;;;;;;;;;;;;;;;;351555;28;805;-64
2022/07/29 00:24:13;;;;;;;;;;;;;;;;;;351529;28;1030;-64
2022/07/29 00:24:23;;;;;;;;;;;;;;;;;;351493;28;940;-64
2022/07/29 00:24:33;;;;;;;;;;;;;;;;;;351505;28;1007;-65
2022/07/29 00:24:44;;;;;;;;;;;;;;;;;;351278;28;1503;-64
2022/07/29 00:24:54;;;;;;;;;;;;;;;;;;351496;28;1007;-63
2022/07/29 00:25:04;;;;;;;;;;;;;;;;;;351557;28;861;-65
2022/07/29 00:25:15;;;;;;;;;;;;;;;;;;351520;28;959;-64
2022/07/29 00:25:25;;;;;;;;;;;;;;;;;;351451;28;758;-64
2022/07/29 00:25:35;;;;;;;;;;;;;;;;;;351588;28;1327;-65
2022/07/29 00:25:45;;;;;;;;;;;;;;;;;;351581;28;802;-63
2022/07/29 00:25:55;;;;;;;;;;;;;;;;;;351460;28;924;-63
2022/07/29 00:26:06;;;;;;;;;;;;;;;;;;350856;28;1406;-64
2022/07/29 00:26:16;;;;;;;;;;;;;;;;;;351512;27;975;-64
2022/07/29 00:26:31;;;;;;;;;;;;;;;;;;351542;28;928;-63
2022/07/29 00:26:41;;;;;;;;;;;;;;;;;;351461;28;1060;-63
2022/07/29 00:26:51;;;;;;;;;;;;;;;;;;351614;28;975;-65
2022/07/29 00:27:02;;;;;;;;;;;;;;;;;;351457;28;833;-64
2022/07/29 00:27:12;;;;;;;;;;;;;;;;;;351675;28;857;-63
2022/07/29 00:27:22;;;;;;;;;;;;;;;;;;351491;28;917;-65
2022/07/29 00:27:33;;;;;;;;;;;;;;;;;;351499;28;1000;-64
2022/07/29 00:27:45;;;;;;;;;;;;;;;;;;351527;28;810;-63
2022/07/29 00:27:55;;;;;;;;;;;;;;;;;;351471;28;920;-63
2022/07/29 00:28:05;;;;;;;;;;;;;;;;;;351516;28;881;-63
2022/07/29 00:28:16;;;;;;;;;;;;;;;;;;351538;28;975;-63
2022/07/29 00:28:26;;;;;;;;;;;;;;;;;;351525;28;929;-63
2022/07/29 00:28:36;;;;;;;;;;;;;;;;;;351522;28;1093;-64
2022/07/29 00:28:46;;;;;;;;;;;;;;;;;;351468;28;924;-63
2022/07/29 00:28:58;;;;;;;;;;;;;;;;;;351490;28;932;-64
2022/07/29 00:29:08;;;;;;;;;;;;;;;;;;351539;28;920;-64
2022/07/29 00:29:18;;;;;;;;;;;;;;;;;;351509;28;940;-64
2022/07/29 00:29:28;;;;;;;;;;;;;;;;;;351473;28;976;-64
2022/07/29 00:29:38;;;;;;;;;;;;;;;;;;351515;28;1068;-64
2022/07/29 00:29:49;;;;;;;;;;;;;;;;;;351354;28;1518;-64
2022/07/29 00:29:59;;;;;;;;;;;;;;;;;;351503;27;952;-64
2022/07/29 00:30:09;;;;;;;;;;;;;;;;;;351475;28;1023;-64
2022/07/29 00:30:20;;;;;;;;;;;;;;;;;;351501;28;952;-63
2022/07/29 00:30:30;;;;;;;;;;;;;;;;;;351564;28;794;-63
2022/07/29 00:30:42;;;;;;;;;;;;;;;;;;351556;28;976;-64
2022/07/29 00:30:53;;;;;;;;;;;;;;;;;;351548;28;943;-63
2022/07/29 00:31:03;;;;;;;;;;;;;;;;;;351434;28;976;-64
2022/07/29 00:31:13;;;;;;;;;;;;;;;;;;351473;28;880;-63
2022/07/29 00:31:23;;;;;;;;;;;;;;;;;;351540;27;924;-63
2022/07/29 00:31:33;;;;;;;;;;;;;;;;;;351619;28;881;-65
2022/07/29 00:31:44;;;;;;;;;;;;;;;;;;351447;28;965;-63
2022/07/29 00:31:54;;;;;;;;;;;;;;;;;;351529;28;920;-64
2022/07/29 00:32:05;;;;;;;;;;;;;;;;;;351558;28;793;-64
2022/07/29 00:32:15;;;;;;;;;;;;;;;;;;351885;28;943;-64
2022/07/29 00:32:25;;;;;;;;;;;;;;;;;;351583;28;940;-64
2022/07/29 00:32:35;;;;;;;;;;;;;;;;;;351505;28;917;-64
2022/07/29 00:32:45;;;;;;;;;;;;;;;;;;351505;28;912;-64
2022/07/29 00:32:56;;;;;;;;;;;;;;;;;;351526;28;924;-64
2022/07/29 00:33:06;;;;;;;;;;;;;;;;;;351429;28;1006;-65
2022/07/29 00:33:16;;;;;;;;;;;;;;;;;;351521;28;912;-64
2022/07/29 00:33:26;;;;;;;;;;;;;;;;;;351542;28;908;-64
2022/07/29 00:33:36;;;;;;;;;;;;;;;;;;351488;28;984;-65
2022/07/29 00:33:47;;;;;;;;;;;;;;;;;;351543;28;888;-64
2022/07/29 00:33:57;;;;;;;;;;;;;;;;;;351366;28;916;-64
2022/07/29 00:35:43;;;;;;;;;;;;;;;;;;351020;28;1956;-64
2022/07/29 00:35:44;;;;;;;;;;;;;;;;;;351386;28;1023;-64
2022/07/29 00:35:57;;;;;;;;;;;;;;;;;;350586;28;2112;-64
2022/07/29 00:36:08;;;;;;;;;;;;;;;;;;352171;27;1281;-64
2022/07/29 00:36:18;;;;;;;;;;;;;;;;;;350238;28;1335;-64
2022/07/29 00:36:28;;;;;;;;;;;;;;;;;;350451;28;925;-64
2022/07/29 00:36:38;;;;;;;;;;;;;;;;;;350181;28;849;-64
2022/07/29 00:36:49;;;;;;;;;;;;;;;;;;350117;28;968;-65
2022/07/29 00:37:01;;;;;;;;;;;;;;;;;;350226;28;924;-65
2022/07/29 00:37:12;;;;;;;;;;;;;;;;;;350056;28;995;-64
2022/07/29 00:37:22;;;;;;;;;;;;;;;;;;350110;28;960;-64
2022/07/29 00:37:32;;;;;;;;;;;;;;;;;;350105;28;991;-64
2022/07/29 00:37:42;;;;;;;;;;;;;;;;;;350135;28;987;-64
2022/07/29 00:37:52;;;;;;;;;;;;;;;;;;349998;28;868;-64
2022/07/29 00:38:02;;;;;;;;;;;;;;;;;;350072;28;967;-64
2022/07/29 00:38:14;;;;;;;;;;;;;;;;;;350075;28;849;-64
2022/07/29 00:38:24;;;;;;;;;;;;;;;;;;350137;28;932;-64
2022/07/29 00:38:34;;;;;;;;;;;;;;;;;;350090;28;905;-65
2022/07/29 00:38:45;;;;;;;;;;;;;;;;;;350134;28;948;-64
2022/07/29 00:38:55;;;;;;;;;;;;;;;;;;350079;28;921;-64
2022/07/29 00:39:06;;;;;;;;;;;;;;;;;;350189;28;1523;-64
2022/07/29 00:39:16;;;;;;;;;;;;;;;;;;351447;28;928;-64
2022/07/29 00:39:26;;;;;;;;;;;;;;;;;;351498;28;980;-64
2022/07/29 00:39:36;;;;;;;;;;;;;;;;;;351569;28;817;-65
2022/07/29 00:39:46;;;;;;;;;;;;;;;;;;351498;28;991;-64
2022/07/29 00:39:57;;;;;;;;;;;;;;;;;;351441;28;921;-64
2022/07/29 00:40:07;;;;;;;;;;;;;;;;;;351540;28;778;-64
2022/07/29 00:40:17;;;;;;;;;;;;;;;;;;350122;28;1331;-64
2022/07/29 00:40:27;;;;;;;;;;;;;;;;;;350131;28;945;-65
2022/07/29 00:40:38;;;;;;;;;;;;;;;;;;350076;28;853;-64
2022/07/29 00:40:48;;;;;;;;;;;;;;;;;;350143;28;790;-64
2022/07/29 00:40:58;;;;;;;;;;;;;;;;;;350107;28;932;-64
2022/07/29 00:41:08;;;;;;;;;;;;;;;;;;350126;28;912;-64
2022/07/29 00:41:18;;;;;;;;;;;;;;;;;;350018;28;813;-64
2022/07/29 00:41:29;;;;;;;;;;;;;;;;;;350098;28;980;-64
2022/07/29 00:41:39;;;;;;;;;;;;;;;;;;350263;28;913;-65
2022/07/29 00:41:49;;;;;;;;;;;;;;;;;;350370;28;857;-64
2022/07/29 00:42:02;;;;;;;;;;;;;;;;;;350079;28;1000;-65
2022/07/29 00:42:12;;;;;;;;;;;;;;;;;;350477;28;1283;-64
2022/07/29 00:42:22;;;;;;;;;;;;;;;;;;351514;28;928;-64
2022/07/29 00:42:42;;;;;;;;;;;;;;;;;;351301;28;1253;-65
2022/07/29 00:42:52;;;;;;;;;;;;;;;;;;351373;28;1034;-64
2022/07/29 00:43:03;;;;;;;;;;;;;;;;;;351433;28;920;-64
2022/07/29 00:43:13;;;;;;;;;;;;;;;;;;351397;28;921;-64
2022/07/29 00:43:24;;;;;;;;;;;;;;;;;;351411;28;768;-64
2022/07/29 00:43:34;;;;;;;;;;;;;;;;;;351389;28;908;-65
2022/07/29 00:43:44;;;;;;;;;;;;;;;;;;351369;28;988;-64
2022/07/29 00:43:54;;;;;;;;;;;;;;;;;;351392;28;853;-64
2022/07/29 00:44:04;;;;;;;;;;;;;;;;;;351204;28;1545;-64
2022/07/29 00:44:15;;;;;;;;;;;;;;;;;;351019;28;1559;-64
2022/07/29 00:44:25;;;;;;;;;;;;;;;;;;351395;28;774;-64
2022/07/29 00:44:36;;;;;;;;;;;;;;;;;;351394;28;940;-64
2022/07/29 00:44:46;;;;;;;;;;;;;;;;;;351396;28;988;-64
2022/07/29 00:44:56;;;;;;;;;;;;;;;;;;351337;28;783;-64
2022/07/29 00:45:06;;;;;;;;;;;;;;;;;;351441;28;916;-65
2022/07/29 00:45:17;;;;;;;;;;;;;;;;;;351486;28;1047;-64
2022/07/29 00:45:27;;;;;;;;;;;;;;;;;;351503;28;932;-64
2022/07/29 00:45:37;;;;;;;;;;;;;;;;;;351501;28;914;-65
2022/07/29 00:45:48;;;;;;;;;;;;;;;;;;351306;28;1495;-64
2022/07/29 00:45:58;;;;;;;;;;;;;;;;;;351444;28;1472;-64
2022/07/29 00:46:08;;;;;;;;;;;;;;;;;;351490;28;984;-64
2022/07/29 00:46:18;;;;;;;;;;;;;;;;;;351280;28;1234;-64
2022/07/29 00:46:28;;;;;;;;;;;;;;;;;;351540;28;853;-64
2022/07/29 00:46:39;;;;;;;;;;;;;;;;;;351463;28;971;-64
2022/07/29 00:46:49;;;;;;;;;;;;;;;;;;351520;28;919;-64
2022/07/29 00:46:59;;;;;;;;;;;;;;;;;;351495;28;901;-64
2022/07/29 00:47:10;;;;;;;;;;;;;;;;;;351410;28;1000;-64
2022/07/29 00:47:20;;;;;;;;;;;;;;;;;;351502;28;916;-64
2022/07/29 00:47:30;;;;;;;;;;;;;;;;;;351470;28;992;-64
2022/07/29 00:47:41;;;;;;;;;;;;;;;;;;351544;28;879;-64
2022/07/29 00:47:51;;;;;;;;;;;;;;;;;;351515;28;975;-64
2022/07/29 00:48:03;;;;;;;;;;;;;;;;;;351524;28;980;-64
2022/07/29 00:48:13;;;;;;;;;;;;;;;;;;351441;28;1035;-64
2022/07/29 00:48:23;;;;;;;;;;;;;;;;;;351438;28;817;-64
2022/07/29 00:48:33;;;;;;;;;;;;;;;;;;351515;28;925;-64
2022/07/29 00:48:44;;;;;;;;;;;;;;;;;;351439;28;960;-64
2022/07/29 00:48:54;;;;;;;;;;;;;;;;;;351242;28;1542;-64
2022/07/29 00:49:04;;;;;;;;;;;;;;;;;;351394;28;1479;-64
2022/07/29 00:49:14;;;;;;;;;;;;;;;;;;351392;28;1585;-64
2022/07/29 00:49:25;;;;;;;;;;;;;;;;;;351536;28;825;-64
2022/07/29 00:49:35;;;;;;;;;;;;;;;;;;351526;28;917;-65
2022/07/29 00:49:45;;;;;;;;;;;;;;;;;;351502;28;924;-64
2022/07/29 00:49:56;;;;;;;;;;;;;;;;;;351549;28;774;-64
2022/07/29 00:50:07;;;;;;;;;;;;;;;;;;351502;28;920;-64
2022/07/29 00:50:17;;;;;;;;;;;;;;;;;;351441;28;912;-64
2022/07/29 00:50:28;;;;;;;;;;;;;;;;;;351420;28;1012;-64
2022/07/29 00:50:38;;;;;;;;;;;;;;;;;;351567;28;992;-65
2022/07/29 00:50:49;;;;;;;;;;;;;;;;;;351489;28;960;-64
2022/07/29 00:50:59;;;;;;;;;;;;;;;;;;351467;28;980;-64
2022/07/29 00:51:10;;;;;;;;;;;;;;;;;;351570;28;975;-65
2022/07/29 00:51:21;;;;;;;;;;;;;;;;;;351526;28;932;-64
2022/07/29 00:51:31;;;;;;;;;;;;;;;;;;351468;28;956;-64
2022/07/29 00:51:41;;;;;;;;;;;;;;;;;;351576;28;972;-65
2022/07/29 00:51:51;;;;;;;;;;;;;;;;;;351529;28;870;-64
2022/07/29 00:52:02;;;;;;;;;;;;;;;;;;351630;28;1004;-65
2022/07/29 00:52:13;;;;;;;;;;;;;;;;;;351503;28;937;-64
2022/07/29 00:52:23;;;;;;;;;;;;;;;;;;351469;28;908;-64
2022/07/29 00:52:35;;;;;;;;;;;;;;;;;;351416;28;960;-64
2022/07/29 00:52:45;;;;;;;;;;;;;;;;;;351524;28;909;-64
2022/07/29 00:52:55;;;;;;;;;;;;;;;;;;351506;28;987;-64
2022/07/29 00:53:06;;;;;;;;;;;;;;;;;;350047;28;1404;-64
2022/07/29 00:53:16;;;;;;;;;;;;;;;;;;351566;28;951;-64
2022/07/29 00:53:26;;;;;;;;;;;;;;;;;;351458;28;766;-64
2022/07/29 00:53:37;;;;;;;;;;;;;;;;;;351504;28;971;-65
2022/07/29 00:53:50;;;;;;;;;;;;;;;;;;351503;28;1027;-64
2022/07/29 00:54:02;;;;;;;;;;;;;;;;;;351171;28;1918;-64
2022/07/29 00:54:12;;;;;;;;;;;;;;;;;;351514;28;980;-64
2022/07/29 00:54:22;;;;;;;;;;;;;;;;;;351440;28;941;-64
2022/07/29 00:54:33;;;;;;;;;;;;;;;;;;351444;28;849;-64
2022/07/29 00:54:43;;;;;;;;;;;;;;;;;;351490;28;917;-64
2022/07/29 00:54:54;;;;;;;;;;;;;;;;;;351492;28;929;-65
2022/07/29 00:55:05;;;;;;;;;;;;;;;;;;350823;28;1342;-64
2022/07/29 00:55:16;;;;;;;;;;;;;;;;;;351494;28;975;-64
2022/07/29 00:55:26;;;;;;;;;;;;;;;;;;351498;28;960;-64
2022/07/29 00:55:37;;;;;;;;;;;;;;;;;;351444;28;936;-64
2022/07/29 00:55:47;;;;;;;;;;;;;;;;;;351430;28;944;-65
2022/07/29 00:55:57;;;;;;;;;;;;;;;;;;351590;28;948;-65
2022/07/29 00:56:08;;;;;;;;;;;;;;;;;;351478;28;996;-64
2022/07/29 00:56:18;;;;;;;;;;;;;;;;;;351480;28;917;-64
2022/07/29 00:56:32;;;;;;;;;;;;;;;;;;351453;28;889;-64
2022/07/29 00:56:42;;;;;;;;;;;;;;;;;;351382;28;1015;-64
2022/07/29 00:56:53;;;;;;;;;;;;;;;;;;351470;28;999;-64
2022/07/29 00:57:03;;;;;;;;;;;;;;;;;;350846;28;1337;-64
2022/07/29 00:57:13;;;;;;;;;;;;;;;;;;351477;28;869;-64
2022/07/29 00:57:23;;;;;;;;;;;;;;;;;;351528;28;877;-64
2022/07/29 00:57:34;;;;;;;;;;;;;;;;;;351501;28;885;-64
2022/07/29 00:57:44;;;;;;;;;;;;;;;;;;351584;28;928;-64
2022/07/29 00:57:56;;;;;;;;;;;;;;;;;;351417;28;1083;-64
2022/07/29 00:58:06;;;;;;;;;;;;;;;;;;351469;28;1083;-64
2022/07/29 00:58:17;;;;;;;;;;;;;;;;;;351518;27;971;-64
2022/07/29 00:58:27;;;;;;;;;;;;;;;;;;351522;28;778;-64
2022/07/29 00:58:38;;;;;;;;;;;;;;;;;;351447;28;1003;-64
2022/07/29 00:58:50;;;;;;;;;;;;;;;;;;351488;28;774;-64
2022/07/29 00:59:00;;;;;;;;;;;;;;;;;;351300;27;1471;-64
2022/07/29 00:59:10;;;;;;;;;;;;;;;;;;351461;28;932;-64
2022/07/29 00:59:20;;;;;;;;;;;;;;;;;;351460;28;952;-64
2022/07/29 00:59:31;;;;;;;;;;;;;;;;;;351487;28;929;-64
2022/07/29 00:59:41;;;;;;;;;;;;;;;;;;351472;28;933;-64
2022/07/29 00:59:51;;;;;;;;;;;;;;;;;;351481;28;988;-64
2022/07/29 01:00:05;;;;;;;;;;;;;;;;;;351414;28;876;-64
2022/07/29 01:00:17;;;;;;;;;;;;;;;;;;351413;28;1039;-63
2022/07/29 01:00:28;;;;;;;;;;;;;;;;;;351518;28;916;-64
2022/07/29 01:00:40;;;;;;;;;;;;;;;;;;351503;28;920;-64
2022/07/29 01:00:51;;;;;;;;;;;;;;;;;;351357;28;861;-64
2022/07/29 01:01:01;;;;;;;;;;;;;;;;;;351480;28;924;-64
2022/07/29 01:01:11;;;;;;;;;;;;;;;;;;351479;28;963;-64
2022/07/29 01:01:21;;;;;;;;;;;;;;;;;;351447;28;909;-64
2022/07/29 01:01:31;;;;;;;;;;;;;;;;;;351479;28;983;-64
2022/07/29 01:01:42;;;;;;;;;;;;;;;;;;351436;28;948;-64
2022/07/29 01:01:52;;;;;;;;;;;;;;;;;;351486;28;845;-64
2022/07/29 01:02:02;;;;;;;;;;;;;;;;;;351489;28;925;-64
2022/07/29 01:02:13;;;;;;;;;;;;;;;;;;351493;28;971;-64
2022/07/29 01:02:23;;;;;;;;;;;;;;;;;;351446;28;903;-64
2022/07/29 01:02:33;;;;;;;;;;;;;;;;;;351476;28;967;-64
2022/07/29 01:02:44;;;;;;;;;;;;;;;;;;351473;28;995;-64
2022/07/29 01:02:54;;;;;;;;;;;;;;;;;;351362;27;941;-64
2022/07/29 01:03:04;;;;;;;;;;;;;;;;;;351528;28;836;-64
2022/07/29 01:03:14;;;;;;;;;;;;;;;;;;351491;28;994;-64
2022/07/29 01:03:25;;;;;;;;;;;;;;;;;;351100;28;1376;-64
2022/07/29 01:03:35;;;;;;;;;;;;;;;;;;351344;28;1511;-64
2022/07/29 01:03:45;;;;;;;;;;;;;;;;;;351519;28;892;-64
2022/07/29 01:03:55;;;;;;;;;;;;;;;;;;351432;28;987;-64
2022/07/29 01:04:08;;;;;;;;;;;;;;;;;;351545;28;880;-64
2022/07/29 01:04:19;;;;;;;;;;;;;;;;;;351468;28;972;-65
2022/07/29 01:04:30;;;;;;;;;;;;;;;;;;351428;28;1066;-64
2022/07/29 01:04:40;;;;;;;;;;;;;;;;;;351466;28;924;-64
2022/07/29 01:04:51;;;;;;;;;;;;;;;;;;351488;28;908;-64
2022/07/29 01:05:02;;;;;;;;;;;;;;;;;;351399;28;885;-64
2022/07/29 01:05:12;;;;;;;;;;;;;;;;;;351506;28;861;-65
2022/07/29 01:05:23;;;;;;;;;;;;;;;;;;351492;28;912;-64
2022/07/29 01:05:34;;;;;;;;;;;;;;;;;;351396;28;1031;-64
2022/07/29 01:05:45;;;;;;;;;;;;;;;;;;351582;28;1003;-65
2022/07/29 01:05:55;;;;;;;;;;;;;;;;;;350343;28;1994;-64
2022/07/29 01:06:06;;;;;;;;;;;;;;;;;;351832;28;948;-64
2022/07/29 01:06:16;;;;;;;;;;;;;;;;;;350863;28;1361;-64
2022/07/29 01:06:27;;;;;;;;;;;;;;;;;;350766;28;1867;-64
2022/07/29 01:06:37;;;;;;;;;;;;;;;;;;351438;28;920;-64
2022/07/29 01:06:50;;;;;;;;;;;;;;;;;;351439;28;1034;-64
2022/07/29 01:07:02;;;;;;;;;;;;;;;;;;351485;28;853;-64
2022/07/29 01:07:12;;;;;;;;;;;;;;;;;;351468;28;786;-64
2022/07/29 01:07:24;;;;;;;;;;;;;;;;;;351509;28;794;-64
2022/07/29 01:07:35;;;;;;;;;;;;;;;;;;351498;28;1000;-64
2022/07/29 01:07:48;;;;;;;;;;;;;;;;;;351387;28;995;-64
2022/07/29 01:07:59;;;;;;;;;;;;;;;;;;351503;28;860;-64
2022/07/29 01:08:11;;;;;;;;;;;;;;;;;;351465;28;1015;-64
2022/07/29 01:08:23;;;;;;;;;;;;;;;;;;351327;28;1558;-64
2022/07/29 01:08:33;;;;;;;;;;;;;;;;;;350121;28;821;-64
2022/07/29 01:08:44;;;;;;;;;;;;;;;;;;350082;28;833;-64
2022/07/29 01:08:55;;;;;;;;;;;;;;;;;;350023;28;957;-65
2022/07/29 01:09:06;;;;;;;;;;;;;;;;;;350143;28;996;-65
2022/07/29 01:09:27;;;;;;;;;;;;;;;;;;350100;28;968;-63
2022/07/29 01:09:37;;;;;;;;;;;;;;;;;;350184;28;960;-65
2022/07/29 01:09:47;;;;;;;;;;;;;;;;;;350117;28;877;-64
2022/07/29 01:09:58;;;;;;;;;;;;;;;;;;349987;28;908;-64
2022/07/29 01:10:09;;;;;;;;;;;;;;;;;;350055;28;992;-64
2022/07/29 01:10:20;;;;;;;;;;;;;;;;;;350111;28;1093;-64
2022/07/29 01:10:31;;;;;;;;;;;;;;;;;;350033;28;932;-64
2022/07/29 01:10:43;;;;;;;;;;;;;;;;;;350093;28;940;-65
2022/07/29 01:10:53;;;;;;;;;;;;;;;;;;349994;28;924;-64
2022/07/29 01:11:04;;;;;;;;;;;;;;;;;;350110;28;988;-64
2022/07/29 01:11:15;;;;;;;;;;;;;;;;;;349978;28;1011;-64
2022/07/29 01:11:25;;;;;;;;;;;;;;;;;;350064;28;980;-64
2022/07/29 01:11:36;;;;;;;;;;;;;;;;;;350054;28;928;-64
2022/07/29 01:11:48;;;;;;;;;;;;;;;;;;350159;28;829;-64
2022/07/29 01:11:58;;;;;;;;;;;;;;;;;;350076;28;973;-65
2022/07/29 01:12:09;;;;;;;;;;;;;;;;;;350203;28;917;-64
2022/07/29 01:12:46;;;;;;;;;;;;;;;;;;350048;28;948;-66
2022/07/29 01:13:00;;;;;;;;;;;;;;;;;;347788;28;1318;-64
2022/07/29 01:13:11;;;;;;;;;;;;;;;;;;349901;28;837;-64
2022/07/29 01:13:22;;;;;;;;;;;;;;;;;;349645;28;1507;-64
2022/07/29 01:13:33;;;;;;;;;;;;;;;;;;349931;28;1040;-64
2022/07/29 01:13:44;;;;;;;;;;;;;;;;;;350019;28;988;-64
2022/07/29 01:13:55;;;;;;;;;;;;;;;;;;350076;28;1035;-64
2022/07/29 01:14:06;;;;;;;;;;;;;;;;;;349997;28;1902;-65
2022/07/29 01:14:20;;;;;;;;;;;;;;;;;;349879;28;2053;-64
2022/07/29 01:14:30;;;;;;;;;;;;;;;;;;350870;28;1892;-64
2022/07/29 01:14:44;;;;;;;;;;;;;;;;;;351701;28;1000;-64
2022/07/29 01:14:55;;;;;;;;;;;;;;;;;;352817;28;936;-64
2022/07/29 01:15:06;;;;;;;;;;;;;;;;;;352826;28;987;-65
2022/07/29 01:15:16;;;;;;;;;;;;;;;;;;352819;28;1007;-64
2022/07/29 01:15:27;;;;;;;;;;;;;;;;;;352845;28;932;-64
2022/07/29 01:15:43;;;;;;;;;;;;;;;;;;352919;28;948;-65
2022/07/29 01:16:06;;;;;;;;;;;;;;;;;;351732;28;1533;-64
2022/07/29 01:16:29;;;;;;;;;;;;;;;;;;351233;28;2074;-64
2022/07/29 01:16:45;;;;;;;;;;;;;;;;;;351723;28;2002;-64
2022/07/29 01:17:01;;;;;;;;;;;;;;;;;;352847;28;850;-64
2022/07/29 01:17:17;;;;;;;;;;;;;;;;;;352922;28;943;-64
2022/07/29 01:17:30;;;;;;;;;;;;;;;;;;352823;28;884;-64
2022/07/29 01:17:44;;;;;;;;;;;;;;;;;;351680;28;1993;-64
2022/07/29 01:18:01;;;;;;;;;;;;;;;;;;352822;28;989;-64
2022/07/29 01:18:16;;;;;;;;;;;;;;;;;;352153;28;1459;-64
2022/07/29 01:18:39;;;;;;;;;;;;;;;;;;351452;28;1057;-64